ETNL/RLG METAR and TAF weather

Enter ICAO airport designator
Station Type Date Time Source
ETNL METAR 2020/02/21 15:20 UTC NOAA

ETNL 211520Z 24012KT 9999 FEW023 BKN030 07/01 Q1019 BLU


Station Type Date Time Source
ETNL Decoded METAR 2020/02/21 15:20 UTC NOAA

Laage, Germany (ETNL) 53-55N 012-17E 46M
Feb 21, 2020 - 10:20 AM EST / 2020.02.21 1520 UTC
Wind: from the WSW (240 degrees) at 14 MPH (12 KT):0
Visibility: greater than 7 mile(s):0
Sky conditions: mostly cloudy
Temperature: 44 F (7 C)
Dew Point: 33 F (1 C)
Relative Humidity: 65%
Pressure (altimeter): 30.09 in. Hg (1019 hPa)
ob: ETNL 211520Z 24012KT 9999 FEW023 BKN030 07/01 Q1019 BLU
cycle: 15

Station Type Date Time Source
ETNL TAF 2019/06/10 05:34 UTC NOAA

TAF ETNL 100400Z 1005/1018 06008KT 9999 NSW BKN100
TEMPO 1005/1018 07012KT 6000 -RA BKN050 OVC100 PROB30 1015/1018 VRB15G30KT 3000 TSRA BKN030CB BY ETGL

Example: see airport list